createdAt,value
2022-10-18T00:01:13.427Z,86.05
2022-10-18T00:06:11.930Z,85.67
2022-10-18T00:08:40.833Z,86.08
2022-10-18T00:11:09.213Z,86.21
2022-10-18T00:13:37.490Z,86.02
2022-10-18T00:16:07.250Z,86.32
2022-10-18T00:18:35.243Z,86.29
2022-10-18T00:21:07.779Z,86.37
2022-10-18T00:23:36.937Z,86.47
2022-10-18T00:26:06.866Z,86.40
2022-10-18T00:28:36.020Z,86.61
2022-10-18T00:31:18.499Z,86.55
2022-10-18T00:33:47.813Z,86.43
2022-10-18T00:36:17.338Z,86.51
2022-10-18T00:38:46.092Z,86.46
2022-10-18T00:41:19.426Z,86.30
2022-10-18T00:43:59.436Z,86.40
2022-10-18T00:46:29.217Z,86.15
2022-10-18T00:48:58.497Z,85.64
2022-10-18T00:51:32.340Z,86.17
2022-10-18T00:54:00.635Z,86.40
2022-10-18T00:56:29.056Z,86.49
2022-10-18T00:58:57.260Z,86.74
2022-10-18T01:01:28.270Z,86.33
2022-10-18T01:03:57.764Z,86.37
2022-10-18T01:06:28.282Z,86.62
2022-10-18T01:09:18.005Z,86.72
2022-10-18T01:11:57.437Z,86.28
2022-10-18T01:14:38.654Z,86.90
2022-10-18T01:17:19.619Z,86.79
2022-10-18T01:20:15.485Z,85.28
2022-10-18T01:22:46.240Z,85.56
2022-10-18T01:25:43.122Z,86.30
2022-10-18T01:28:37.328Z,86.69
2022-10-18T01:31:10.717Z,86.69
2022-10-18T01:33:44.460Z,87.60
2022-10-18T01:36:16.867Z,87.74
2022-10-18T01:38:45.894Z,87.97
2022-10-18T01:41:16.121Z,87.85
2022-10-18T01:43:45.804Z,88.17
2022-10-18T01:46:19.740Z,87.42
2022-10-18T01:48:48.374Z,87.88
2022-10-18T01:51:16.497Z,88.14
2022-10-18T01:53:44.436Z,87.96
2022-10-18T01:56:23.905Z,87.87
2022-10-18T01:59:02.985Z,87.61
2022-10-18T02:01:41.672Z,87.50
2022-10-18T02:04:21.934Z,87.61
2022-10-18T02:06:59.146Z,87.49
2022-10-18T02:09:34.946Z,87.35
2022-10-18T02:12:05.222Z,87.09
2022-10-18T02:14:34.440Z,87.07
2022-10-18T02:17:09.538Z,86.98
2022-10-18T02:19:42.083Z,86.54
2022-10-18T02:22:13.260Z,86.58
2022-10-18T02:24:44.444Z,86.77
2022-10-18T02:27:13.269Z,85.90
2022-10-18T02:29:43.271Z,86.18
2022-10-18T02:32:18.326Z,86.48
2022-10-18T02:34:50.413Z,86.29
2022-10-18T02:37:19.075Z,86.25
2022-10-18T02:39:49.996Z,86.26
2022-10-18T02:42:18.179Z,86.45
2022-10-18T02:44:46.347Z,85.90
2022-10-18T02:47:15.820Z,86.05
2022-10-18T02:49:43.753Z,86.20
2022-10-18T02:52:11.659Z,86.30
2022-10-18T02:54:39.669Z,86.28
2022-10-18T02:57:07.636Z,86.65
2022-10-18T02:59:35.856Z,86.67
2022-10-18T03:02:03.669Z,86.59
2022-10-18T03:04:33.164Z,87.01
2022-10-18T03:07:00.964Z,86.26
2022-10-18T03:09:28.771Z,86.42
2022-10-18T03:11:56.923Z,86.81
2022-10-18T03:14:25.149Z,87.36
2022-10-18T03:16:53.532Z,87.29
2022-10-18T03:19:22.028Z,87.01
2022-10-18T03:21:51.990Z,87.11
2022-10-18T03:24:20.638Z,87.07
2022-10-18T03:26:49.347Z,87.12
2022-10-18T03:29:17.833Z,86.67
2022-10-18T03:31:46.648Z,86.41
2022-10-18T03:34:15.931Z,86.69
2022-10-18T03:36:44.974Z,86.41
2022-10-18T03:39:14.892Z,86.00
2022-10-18T03:41:43.644Z,86.46
2022-10-18T03:44:11.954Z,86.73
2022-10-18T03:46:40.941Z,86.71
2022-10-18T03:49:09.452Z,86.59
2022-10-18T03:51:38.326Z,86.68
2022-10-18T03:54:06.667Z,86.83
2022-10-18T03:56:36.803Z,86.47
2022-10-18T03:59:05.093Z,86.63
2022-10-18T04:01:33.371Z,86.46
2022-10-18T04:04:02.062Z,86.69
2022-10-18T04:06:30.458Z,86.14
2022-10-18T04:08:58.814Z,86.23
2022-10-18T04:11:27.240Z,85.60
2022-10-18T04:13:57.037Z,84.66
2022-10-18T04:16:25.660Z,84.99
2022-10-18T04:18:54.218Z,84.60
2022-10-18T04:21:22.449Z,83.90
2022-10-18T04:23:51.536Z,83.95
2022-10-18T04:26:19.793Z,83.32
2022-10-18T04:28:48.032Z,82.95
2022-10-18T04:31:18.250Z,82.78
2022-10-18T04:33:47.052Z,82.42
2022-10-18T04:36:15.210Z,82.42
2022-10-18T04:38:43.503Z,81.84
2022-10-18T04:41:11.320Z,81.85
2022-10-18T04:43:39.283Z,81.92
2022-10-18T04:46:07.472Z,81.25
2022-10-18T04:48:37.016Z,81.43
2022-10-18T04:51:04.913Z,81.52
2022-10-18T04:53:32.669Z,81.51
2022-10-18T04:56:00.508Z,81.43
2022-10-18T04:58:28.312Z,81.24
2022-10-18T05:00:56.662Z,80.92
2022-10-18T05:03:24.490Z,80.79
2022-10-18T05:06:01.727Z,80.77
2022-10-18T05:08:31.745Z,80.62
2022-10-18T05:11:00.471Z,80.10
2022-10-18T05:13:28.336Z,80.12
2022-10-18T05:15:56.289Z,79.64
2022-10-18T05:18:24.181Z,79.32
2022-10-18T05:20:53.411Z,78.50
2022-10-18T05:23:21.229Z,78.94
2022-10-18T05:25:49.043Z,78.95
2022-10-18T05:31:06.596Z,78.98
2022-10-18T05:33:35.058Z,79.35
2022-10-18T05:36:04.379Z,79.50
2022-10-18T05:38:32.340Z,79.46
2022-10-18T05:41:00.560Z,79.54
2022-10-18T05:43:30.008Z,79.75
2022-10-18T05:45:58.233Z,79.83
2022-10-18T05:48:26.656Z,79.74
2022-10-18T05:50:54.454Z,79.58
2022-10-18T05:53:38.846Z,79.67
2022-10-18T05:56:07.999Z,79.13
2022-10-18T05:58:36.326Z,79.66
2022-10-18T06:01:06.409Z,79.67
2022-10-18T06:03:34.710Z,79.92
2022-10-18T06:06:03.262Z,79.73
2022-10-18T06:08:32.572Z,79.34
2022-10-18T06:11:00.846Z,80.11
2022-10-18T06:13:31.143Z,80.48
2022-10-18T06:16:01.645Z,80.72
2022-10-18T06:18:29.937Z,81.12
2022-10-18T06:20:59.336Z,81.24
2022-10-18T06:23:28.327Z,81.55
2022-10-18T06:26:01.260Z,81.72
2022-10-18T06:28:29.910Z,81.38
2022-10-18T06:30:58.731Z,81.69
2022-10-18T06:33:26.920Z,81.46
2022-10-18T06:35:59.438Z,81.40
2022-10-18T06:38:28.017Z,81.31
2022-10-18T06:40:56.759Z,81.24
2022-10-18T06:43:26.417Z,80.92
2022-10-18T06:45:55.535Z,80.72
2022-10-18T06:48:25.673Z,80.16
2022-10-18T06:50:57.055Z,79.96
2022-10-18T06:53:25.688Z,79.63
2022-10-18T06:55:54.056Z,79.13
2022-10-18T06:58:22.126Z,78.78
2022-10-18T07:00:51.341Z,78.31
2022-10-18T07:03:19.153Z,77.74
2022-10-18T07:05:47.071Z,77.74
2022-10-18T07:08:15.309Z,77.91
2022-10-18T07:10:43.463Z,77.83
2022-10-18T07:13:31.396Z,77.49
2022-10-18T07:16:11.644Z,77.33
2022-10-18T07:18:43.840Z,77.07
2022-10-18T07:21:14.102Z,76.80
2022-10-18T07:23:43.987Z,76.89
2022-10-18T07:26:14.845Z,76.74
2022-10-18T07:28:44.154Z,76.47
2022-10-18T07:31:14.922Z,76.33
2022-10-18T07:33:44.398Z,76.03
2022-10-18T07:36:14.682Z,75.79
2022-10-18T07:38:43.294Z,75.80
2022-10-18T07:41:14.025Z,76.09
2022-10-18T07:43:47.447Z,75.71
2022-10-18T07:46:18.147Z,75.39
2022-10-18T07:48:46.535Z,75.67
2022-10-18T07:51:16.281Z,75.66
2022-10-18T07:53:44.910Z,75.17
2022-10-18T07:56:17.126Z,74.26
2022-10-18T07:58:46.940Z,73.90
2022-10-18T08:01:17.877Z,74.39
2022-10-18T08:03:46.259Z,74.57
2022-10-18T08:06:18.370Z,74.41
2022-10-18T08:08:47.793Z,74.20
2022-10-18T08:11:18.320Z,74.07
2022-10-18T08:13:47.084Z,74.04
2022-10-18T08:16:19.775Z,73.83
2022-10-18T08:18:48.389Z,73.15
2022-10-18T08:21:17.783Z,73.20
2022-10-18T08:23:46.677Z,72.30
2022-10-18T08:26:17.371Z,71.30
2022-10-18T08:28:53.987Z,71.19
2022-10-18T08:31:28.528Z,71.36
2022-10-18T08:34:01.093Z,71.02
2022-10-18T08:36:30.052Z,70.45
2022-10-18T08:38:58.941Z,70.50
2022-10-18T08:41:47.707Z,70.26
2022-10-18T08:44:23.165Z,68.94
2022-10-18T08:46:56.745Z,68.90
2022-10-18T08:49:31.472Z,69.03
2022-10-18T08:52:00.230Z,69.01
2022-10-18T08:54:36.428Z,69.11
2022-10-18T08:57:14.296Z,69.46
2022-10-18T08:59:44.172Z,70.34
2022-10-18T09:02:35.338Z,71.22
2022-10-18T09:05:18.700Z,71.54
2022-10-18T09:08:20.259Z,71.58
2022-10-18T09:11:00.631Z,70.47
2022-10-18T09:13:49.982Z,71.93
2022-10-18T09:16:25.786Z,72.21
2022-10-18T09:19:05.878Z,72.42
2022-10-18T09:21:48.427Z,72.90
2022-10-18T09:24:30.268Z,72.77
2022-10-18T09:27:06.068Z,71.56
2022-10-18T09:29:49.865Z,71.39
2022-10-18T09:32:31.393Z,70.02
2022-10-18T09:35:07.287Z,69.96
2022-10-18T09:37:37.016Z,69.67
2022-10-18T09:40:18.083Z,70.34
2022-10-18T09:42:55.635Z,69.71
2022-10-18T09:45:28.413Z,69.18
2022-10-18T09:48:03.892Z,68.11
2022-10-18T09:50:38.384Z,67.90
2022-10-18T09:53:15.070Z,66.22
2022-10-18T09:55:56.391Z,65.68
2022-10-18T09:58:28.318Z,67.30
2022-10-18T10:00:57.508Z,68.29
2022-10-18T10:03:26.925Z,67.95
2022-10-18T10:06:17.590Z,68.24
2022-10-18T10:08:49.492Z,67.60
2022-10-18T10:11:36.360Z,66.65
2022-10-18T10:14:14.267Z,67.21
2022-10-18T10:16:48.985Z,65.91
2022-10-18T10:19:19.766Z,65.69
2022-10-18T10:21:51.434Z,65.69
2022-10-18T10:24:27.441Z,63.98
2022-10-18T10:27:04.640Z,64.14
2022-10-18T10:29:51.551Z,64.40
2022-10-18T10:32:21.756Z,65.24
2022-10-18T10:34:50.053Z,65.59
2022-10-18T10:37:39.029Z,65.73
2022-10-18T10:40:28.406Z,65.24
2022-10-18T10:43:33.108Z,65.25
2022-10-18T10:46:09.977Z,66.09
2022-10-18T10:48:47.117Z,66.05
2022-10-18T10:51:17.389Z,66.03
2022-10-18T10:53:52.326Z,66.55
2022-10-18T10:56:25.655Z,65.15
2022-10-18T10:58:54.445Z,65.46
2022-10-18T11:01:28.679Z,65.19
2022-10-18T11:03:58.851Z,65.34
2022-10-18T11:06:40.499Z,65.17
2022-10-18T11:09:27.877Z,64.60
2022-10-18T11:12:27.896Z,65.17
2022-10-18T11:15:05.652Z,65.33
2022-10-18T11:17:41.355Z,65.67
2022-10-18T11:20:20.767Z,66.78
2022-10-18T11:22:59.927Z,67.90
2022-10-18T11:25:43.986Z,68.30
2022-10-18T11:28:21.549Z,67.26
2022-10-18T11:31:01.321Z,66.60
2022-10-18T11:34:07.197Z,66.04
2022-10-18T11:36:36.568Z,66.56
2022-10-18T11:39:10.370Z,66.53
2022-10-18T11:41:51.182Z,66.55
2022-10-18T11:44:30.398Z,67.32
2022-10-18T11:47:06.932Z,67.81
2022-10-18T11:49:52.774Z,67.30
2022-10-18T11:52:29.413Z,67.04
2022-10-18T11:55:17.423Z,67.63
2022-10-18T11:57:53.094Z,67.90
2022-10-18T12:00:31.296Z,68.00
2022-10-18T12:03:13.427Z,67.61
2022-10-18T12:05:44.557Z,66.80
2022-10-18T12:08:16.198Z,66.86
2022-10-18T12:11:04.175Z,65.27
2022-10-18T12:13:41.304Z,65.32
2022-10-18T12:16:10.851Z,65.08
2022-10-18T12:18:50.678Z,63.75
2022-10-18T12:21:25.280Z,63.51
2022-10-18T12:23:56.957Z,63.01
2022-10-18T12:26:26.327Z,62.82
2022-10-18T12:29:07.976Z,63.51
2022-10-18T12:31:41.465Z,63.10
2022-10-18T12:34:26.396Z,63.03
2022-10-18T12:37:11.967Z,63.16
2022-10-18T12:40:08.662Z,63.66
2022-10-18T12:42:41.443Z,63.14
2022-10-18T12:45:24.186Z,63.44
2022-10-18T12:47:52.472Z,63.26
2022-10-18T12:50:32.647Z,62.53
2022-10-18T12:53:17.067Z,63.37
2022-10-18T12:55:47.001Z,63.92
2022-10-18T12:58:36.749Z,64.40
2022-10-18T13:01:13.470Z,64.22
2022-10-18T13:04:02.719Z,64.64
2022-10-18T13:07:03.844Z,65.14
2022-10-18T13:09:35.460Z,65.23
2022-10-18T13:12:44.965Z,65.48
2022-10-18T13:15:36.374Z,65.08
2022-10-18T13:18:20.014Z,65.46
2022-10-18T13:20:57.721Z,65.52
2022-10-18T13:23:39.217Z,64.38
2022-10-18T13:26:22.716Z,65.15
2022-10-18T13:28:57.694Z,65.98
2022-10-18T13:31:31.469Z,65.32
2022-10-18T13:34:32.965Z,65.35
2022-10-18T13:37:02.767Z,65.30
2022-10-18T13:39:31.733Z,65.86
2022-10-18T13:42:32.590Z,66.21
2022-10-18T13:45:38.110Z,66.61
2022-10-18T13:48:43.698Z,65.35
2022-10-18T13:51:31.568Z,66.08
2022-10-18T13:54:05.676Z,66.54
2022-10-18T13:56:52.646Z,67.51
2022-10-18T13:59:47.006Z,67.12
2022-10-18T14:02:59.721Z,68.38
2022-10-18T14:05:50.202Z,67.67
2022-10-18T14:08:23.364Z,68.06
2022-10-18T14:11:03.016Z,68.74
2022-10-18T14:13:39.933Z,68.08
2022-10-18T14:16:22.191Z,68.37
2022-10-18T14:18:56.333Z,67.53
2022-10-18T14:21:31.665Z,67.60
2022-10-18T14:24:00.975Z,67.95
2022-10-18T14:26:29.621Z,68.32
2022-10-18T14:29:06.206Z,68.86
2022-10-18T14:31:35.746Z,68.82
2022-10-18T14:34:04.204Z,69.11
2022-10-18T14:36:38.165Z,69.08
2022-10-18T14:39:18.153Z,69.89
2022-10-18T14:41:52.516Z,70.06
2022-10-18T14:44:21.860Z,69.31
2022-10-18T14:46:54.191Z,69.67
2022-10-18T14:49:22.969Z,69.74
2022-10-18T14:51:54.169Z,70.26
2022-10-18T14:54:30.756Z,70.36
2022-10-18T14:57:00.740Z,70.56
2022-10-18T14:59:31.347Z,71.25
2022-10-18T15:02:02.839Z,70.81
2022-10-18T15:04:33.773Z,72.60
2022-10-18T15:07:03.591Z,72.83
2022-10-18T15:09:35.535Z,73.83
2022-10-18T15:12:08.714Z,71.91
2022-10-18T15:14:38.228Z,73.54
2022-10-18T15:17:14.005Z,74.06
2022-10-18T15:19:57.129Z,73.27
2022-10-18T15:22:31.727Z,73.67
2022-10-18T15:25:27.992Z,73.96
2022-10-18T15:28:00.505Z,74.41
2022-10-18T15:30:30.866Z,74.76
2022-10-18T15:33:00.989Z,75.30
2022-10-18T15:35:31.562Z,75.21
2022-10-18T15:38:02.518Z,75.39
2022-10-18T15:40:40.055Z,75.00
2022-10-18T15:43:36.065Z,76.12
2022-10-18T15:46:06.613Z,75.15
2022-10-18T15:48:38.382Z,74.96
2022-10-18T15:51:07.657Z,76.36
2022-10-18T15:53:42.447Z,75.82
2022-10-18T15:56:27.057Z,76.41
2022-10-18T15:58:57.287Z,76.04
2022-10-18T16:01:36.390Z,76.72
2022-10-18T16:04:10.590Z,76.50
2022-10-18T16:06:38.773Z,77.27
2022-10-18T16:09:06.757Z,76.77
2022-10-18T16:11:35.961Z,77.06
2022-10-18T16:14:04.165Z,77.33
2022-10-18T16:16:32.121Z,76.60
2022-10-18T16:19:00.224Z,76.81
2022-10-18T16:21:30.525Z,77.28
2022-10-18T16:23:58.995Z,77.66
2022-10-18T16:26:28.280Z,77.75
2022-10-18T16:28:58.230Z,78.03
2022-10-18T16:31:28.845Z,78.28
2022-10-18T16:33:57.719Z,78.28
2022-10-18T16:36:29.040Z,78.51
2022-10-18T16:38:58.188Z,78.39
2022-10-18T16:41:26.043Z,78.19
2022-10-18T16:43:54.542Z,78.64
2022-10-18T16:46:27.337Z,78.73
2022-10-18T16:48:56.047Z,79.02
2022-10-18T16:51:24.539Z,79.32
2022-10-18T16:53:53.399Z,79.36
2022-10-18T16:56:23.619Z,79.20
2022-10-18T16:58:51.832Z,79.40
2022-10-18T17:01:24.076Z,79.70
2022-10-18T17:03:54.056Z,79.49
2022-10-18T17:06:24.443Z,79.87
2022-10-18T17:08:54.149Z,80.06
2022-10-18T17:11:23.975Z,80.15
2022-10-18T17:13:51.984Z,80.33
2022-10-18T17:16:26.664Z,80.59
2022-10-18T17:18:54.738Z,81.04
2022-10-18T17:21:22.993Z,80.81
2022-10-18T17:23:50.882Z,80.53
2022-10-18T17:26:29.416Z,80.60
2022-10-18T17:29:00.299Z,80.96
2022-10-18T17:31:30.282Z,81.23
2022-10-18T17:34:01.478Z,80.56
2022-10-18T17:36:30.159Z,81.04
2022-10-18T17:38:58.661Z,81.25
2022-10-18T17:41:26.851Z,81.84
2022-10-18T17:43:54.838Z,81.50
2022-10-18T17:46:23.850Z,81.67
2022-10-18T17:48:54.222Z,82.29
2022-10-18T17:51:22.577Z,82.40
2022-10-18T17:53:50.697Z,82.38
2022-10-18T17:56:18.477Z,82.31
2022-10-18T17:58:47.030Z,82.53
2022-10-18T18:01:16.813Z,82.69
2022-10-18T18:03:44.956Z,82.22
2022-10-18T18:06:17.104Z,82.55
2022-10-18T18:08:45.074Z,82.46
2022-10-18T18:11:13.729Z,82.71
2022-10-18T18:13:41.739Z,82.73
2022-10-18T18:16:14.433Z,82.80
2022-10-18T18:18:42.916Z,82.28
2022-10-18T18:21:11.203Z,82.38
2022-10-18T18:23:40.931Z,82.77
2022-10-18T18:26:14.780Z,82.95
2022-10-18T18:28:43.023Z,83.00
2022-10-18T18:31:17.566Z,82.78
2022-10-18T18:33:45.895Z,82.81
2022-10-18T18:36:14.616Z,83.00
2022-10-18T18:38:44.427Z,83.00
2022-10-18T18:41:18.471Z,83.00
2022-10-18T18:43:50.572Z,82.81
2022-10-18T18:46:18.741Z,83.14
2022-10-18T18:48:46.815Z,83.29
2022-10-18T18:51:18.122Z,83.25
2022-10-18T18:53:48.762Z,83.53
2022-10-18T18:56:18.681Z,83.34
2022-10-18T18:58:47.791Z,83.33
2022-10-18T19:01:18.614Z,83.31
2022-10-18T19:03:53.071Z,83.24
2022-10-18T19:06:22.905Z,83.39
2022-10-18T19:09:00.321Z,83.23
2022-10-18T19:11:31.281Z,83.54
2022-10-18T19:13:59.453Z,83.66
2022-10-18T19:16:29.222Z,83.89
2022-10-18T19:19:00.282Z,83.63
2022-10-18T19:21:30.160Z,83.43
2022-10-18T19:23:59.801Z,83.40
2022-10-18T19:26:34.034Z,83.97
2022-10-18T19:29:05.206Z,83.99
2022-10-18T19:31:35.253Z,84.16
2022-10-18T19:34:04.362Z,84.41
2022-10-18T19:36:32.789Z,84.46
2022-10-18T19:39:03.769Z,84.68
2022-10-18T19:41:33.965Z,84.34
2022-10-18T19:44:02.357Z,84.76
2022-10-18T19:46:31.558Z,84.58
2022-10-18T19:48:59.360Z,84.04
2022-10-18T19:51:28.515Z,84.03
2022-10-18T19:54:00.313Z,84.40
2022-10-18T19:56:30.137Z,84.63
2022-10-18T19:58:58.735Z,84.64
2022-10-18T20:01:27.512Z,84.94
2022-10-18T20:03:55.897Z,84.81
2022-10-18T20:06:24.424Z,84.91
2022-10-18T20:08:53.601Z,85.42
2022-10-18T20:11:22.769Z,85.65
2022-10-18T20:13:52.387Z,85.06
2022-10-18T20:16:28.126Z,85.09
2022-10-18T20:18:58.380Z,85.52
2022-10-18T20:21:27.363Z,85.69
2022-10-18T20:23:55.917Z,85.91
2022-10-18T20:26:25.502Z,86.04
2022-10-18T20:28:57.922Z,86.12
2022-10-18T20:31:28.464Z,85.84
2022-10-18T20:33:57.713Z,85.92
2022-10-18T20:36:26.784Z,85.79
2022-10-18T20:38:58.140Z,85.68
2022-10-18T20:41:27.759Z,85.29
2022-10-18T20:43:58.523Z,85.19
2022-10-18T20:46:26.883Z,86.06
2022-10-18T20:48:55.111Z,86.30
2022-10-18T20:51:23.645Z,86.93
2022-10-18T20:53:51.988Z,87.05
2022-10-18T20:56:21.461Z,86.97
2022-10-18T20:58:51.746Z,86.93
2022-10-18T21:01:22.630Z,86.55
2022-10-18T21:03:52.948Z,86.45
2022-10-18T21:06:22.745Z,87.27
2022-10-18T21:08:54.222Z,87.15
2022-10-18T21:11:22.309Z,87.52
2022-10-18T21:13:53.622Z,87.34
2022-10-18T21:16:23.173Z,87.81
2022-10-18T21:18:51.271Z,88.04
2022-10-18T21:21:21.290Z,88.11
2022-10-18T21:23:49.482Z,88.68
2022-10-18T21:26:19.063Z,88.07
2022-10-18T21:28:47.402Z,88.78
2022-10-18T21:31:17.922Z,88.64
2022-10-18T21:33:48.768Z,88.88
2022-10-18T21:36:16.586Z,88.72
2022-10-18T21:38:46.668Z,89.16
2022-10-18T21:41:16.820Z,88.84
2022-10-18T21:43:47.846Z,88.44
2022-10-18T21:46:16.732Z,89.16
2022-10-18T21:48:45.577Z,89.04
2022-10-18T21:51:17.588Z,89.14
2022-10-18T21:53:48.397Z,89.43
2022-10-18T21:56:18.174Z,89.45
2022-10-18T21:58:46.929Z,89.04
2022-10-18T22:01:17.766Z,89.04
2022-10-18T22:03:48.781Z,88.95
2022-10-18T22:06:19.045Z,88.46
2022-10-18T22:08:50.280Z,88.49
2022-10-18T22:11:18.657Z,88.22
2022-10-18T22:13:47.232Z,87.92
2022-10-18T22:16:16.395Z,88.10
2022-10-18T22:18:45.093Z,87.54
2022-10-18T22:21:14.989Z,87.82
2022-10-18T22:23:46.228Z,87.65
2022-10-18T22:26:16.607Z,87.70
2022-10-18T22:28:46.335Z,87.84
2022-10-18T22:31:18.642Z,87.49
2022-10-18T22:33:46.924Z,87.55
2022-10-18T22:36:15.323Z,87.84
2022-10-18T22:38:44.844Z,87.91
2022-10-18T22:41:13.177Z,87.90
2022-10-18T22:43:41.672Z,87.78
2022-10-18T22:46:11.239Z,88.17
2022-10-18T22:48:39.206Z,88.15
2022-10-18T22:51:07.857Z,88.31
2022-10-18T22:53:36.688Z,88.01
2022-10-18T22:56:07.153Z,88.00
2022-10-18T22:58:35.271Z,88.58
2022-10-18T23:01:05.544Z,88.31
2022-10-18T23:03:34.057Z,88.29
2022-10-18T23:06:02.588Z,88.40
2022-10-18T23:08:32.516Z,88.70
2022-10-18T23:11:01.523Z,88.57
2022-10-18T23:13:30.777Z,88.35
2022-10-18T23:16:04.649Z,88.11
2022-10-18T23:18:33.950Z,86.56
2022-10-18T23:21:03.507Z,87.10
2022-10-18T23:23:34.897Z,87.36
2022-10-18T23:26:04.436Z,87.46
2022-10-18T23:28:36.618Z,87.65
2022-10-18T23:31:07.900Z,87.40
2022-10-18T23:33:35.936Z,87.64
2022-10-18T23:36:04.314Z,87.74
2022-10-18T23:38:32.209Z,88.59
2022-10-18T23:41:00.096Z,89.74
2022-10-18T23:43:28.324Z,89.82
2022-10-18T23:45:57.985Z,90.12
2022-10-18T23:48:25.989Z,89.79
2022-10-18T23:50:54.145Z,89.29
2022-10-18T23:53:22.780Z,88.83
2022-10-18T23:55:54.679Z,88.66
2022-10-18T23:58:22.587Z,88.35
